Disney Magic — C6PT7 — position and weather

sailwx.info

Track history (hours):
 
Tides and Currents Weather Stations Pressure Air Temp Water Temp Dewpoint Dewpoint Depression Visibility Wind Speed Wind Dir Waves Ship Positions

Disney Magic

Last reported at 2016-May-30 00:33 UTC. Time now 2016-May-30 06:55 UTC.
Position N 52°39' E 002°42'.

Type: Passenger vessel. MMSI: 308516000.

Date/timePositionNaut miles runAvg speedWind from/ knotsBaromVisibWave heightAir tempDewpointWater temp
2016-May-30 00:33N 52°39' E 002°42'3517.0
2016-May-29 22:29N 52°04' E 002°39'1414.1
2016-May-29 21:28N 51°49' E 002°38'1415.7
2016-May-29 20:33N 51°38' E 002°25'1716.8
2016-May-29 19:33N 51°23' E 002°10'1616.4
2016-May-29 18:33N 51°10' E 001°55'1616.3
2016-May-29 17:33N 51°01' E 001°34'11 9.6
2016-May-29 16:25N 51°07' E 001°19'0 0.0
2016-May-29 15:25N 51°07' E 001°19'0 0.0
2016-May-29 14:28N 51°07' E 001°19'0 0.0
2016-May-29 13:31N 51°07' E 001°19'0 0.0
2016-May-29 12:31N 51°07' E 001°19'0 0.0
2016-May-29 11:31N 51°07' E 001°19'0 0.0
2016-May-29 10:28N 51°07' E 001°19'0 0.0
2016-May-29 09:31N 51°07' E 001°19'0 0.0
2016-May-29 08:31N 51°07' E 001°19'0 0.0
2016-May-29 07:31N 51°07' E 001°19'0 0.0
2016-May-29 06:31N 51°07' E 001°19'0 0.0
2016-May-29 05:31N 51°07' E 001°19'3 3.5
2016-May-29 04:34N 51°08' E 001°24'10 9.7
2016-May-29 03:33N 50°58' E 001°28'1615.5
2016-May-29 02:32N 50°43' E 001°20'3516.3
2016-May-29 00:24N 50°25' E 000°33'1618.6
2016-May-28 23:33N 50°22' E 000°09'2222.2
2016-May-28 22:33N 50°16' W 000°24'2221.8
2016-May-28 21:33N 50°10' W 000°57'2121.0
2016-May-28 20:33N 50°05' W 001°29'4519.7
2016-May-28 18:16N 49°53' W 002°37'1217.5
2016-May-28 17:33N 49°50' W 002°55'1716.6
2016-May-28 16:33N 49°50' W 003°21'1717.0
2016-May-28 15:33N 49°50' W 003°47'1717.2
2016-May-28 14:33N 49°50' W 004°14'1717.3
2016-May-28 13:34N 49°50' W 004°41'1817.4
2016-May-28 12:33N 49°50' W 005°08'1917.7
2016-May-28 11:29N 49°51' W 005°37'1617.2
2016-May-28 10:33N 49°55' W 006°01'2218.2
2016-May-28 09:22N 50°17' W 006°02'1518.0
2016-May-28 08:32N 50°32' W 006°02'1818.1
2016-May-28 07:33N 50°50' W 006°02'17616.8
2016-May-27 21:04N 53°34' W 004°18'918.4
2016-May-27 20:33N 53°34' W 004°03'1918.8
2016-May-27 19:33N 53°33' W 003°31'1413.8
2016-May-27 18:33N 53°32' W 003°08'8 8.4
2016-May-27 17:33N 53°25' W 003°00'0 0.0
2016-May-27 16:32N 53°25' W 003°00'0 0.0
2016-May-27 15:32N 53°25' W 003°00'0 0.0
2016-May-27 14:32N 53°25' W 003°00'0 0.0
2016-May-27 13:32N 53°25' W 003°00'0 0.0
2016-May-27 12:32N 53°25' W 003°00'0 0.0
2016-May-27 11:32N 53°25' W 003°00'0 0.0
2016-May-27 10:32N 53°25' W 003°00'0 0.0
2016-May-27 09:32N 53°25' W 003°00'0 0.0
2016-May-27 08:32N 53°25' W 003°00'0 0.0
2016-May-27 07:32N 53°25' W 003°00'0 0.0
2016-May-27 06:32N 53°25' W 003°00'0 0.0
2016-May-27 05:32N 53°25' W 003°00'0 0.0
2016-May-27 04:32N 53°25' W 003°00'0 0.0
2016-May-27 03:32N 53°25' W 003°00'0 0.0
2016-May-27 02:32N 53°25' W 003°00'0 0.0
2016-May-27 01:33N 53°25' W 003°00'3 3.5
2016-May-27 00:33N 53°28' W 003°03'1111.2
2016-May-26 23:33N 53°32' W 003°20'1313.5
2016-May-26 22:33N 53°31' W 003°43'1717.3
2016-May-26 21:34N 53°40' W 004°08'135 5.8
2016-May-25 22:22N 51°58' W 006°32'1721.1
2016-May-25 21:33N 51°52' W 006°58'2120.7
2016-May-25 20:33N 51°45' W 007°30'2120.9
2016-May-25 19:33N 51°38' W 008°01'2020.2
2016-May-25 18:33N 51°31' W 008°32'2121.1
2016-May-25 17:33N 51°24' W 009°04'2121.1
2016-May-25 16:34N 51°17' W 009°36'2222.0
2016-May-25 15:33N 51°17' W 010°11'  
2016-May-23 00:00N 49°36' W 040°48'   330 / 451009.3 5.4 5.0
Track history (hours):
 
Tides and Currents Weather Stations Pressure Air Temp Water Temp Dewpoint Dewpoint Depression Visibility Wind Speed Wind Dir Waves Ship Positions

Disney Magic

Last reported at 2016-May-30 00:33 UTC. Time now 2016-May-30 06:55 UTC.
Position N 52°39' E 002°42'.

Type: Passenger vessel. MMSI: 308516000.

Date/timePositionNaut miles runAvg speedWind from/ knotsBaromVisibWave heightAir tempDewpointWater temp
2016-May-30 00:33N 52°39' E 002°42'3517.0
2016-May-29 22:29N 52°04' E 002°39'1414.1
2016-May-29 21:28N 51°49' E 002°38'1415.7
2016-May-29 20:33N 51°38' E 002°25'1716.8
2016-May-29 19:33N 51°23' E 002°10'1616.4
2016-May-29 18:33N 51°10' E 001°55'1616.3
2016-May-29 17:33N 51°01' E 001°34'11 9.6
2016-May-29 16:25N 51°07' E 001°19'0 0.0
2016-May-29 15:25N 51°07' E 001°19'0 0.0
2016-May-29 14:28N 51°07' E 001°19'0 0.0
2016-May-29 13:31N 51°07' E 001°19'0 0.0
2016-May-29 12:31N 51°07' E 001°19'0 0.0
2016-May-29 11:31N 51°07' E 001°19'0 0.0
2016-May-29 10:28N 51°07' E 001°19'0 0.0
2016-May-29 09:31N 51°07' E 001°19'0 0.0
2016-May-29 08:31N 51°07' E 001°19'0 0.0
2016-May-29 07:31N 51°07' E 001°19'0 0.0
2016-May-29 06:31N 51°07' E 001°19'0 0.0
2016-May-29 05:31N 51°07' E 001°19'3 3.5
2016-May-29 04:34N 51°08' E 001°24'10 9.7
2016-May-29 03:33N 50°58' E 001°28'1615.5
2016-May-29 02:32N 50°43' E 001°20'3516.3
2016-May-29 00:24N 50°25' E 000°33'1618.6
2016-May-28 23:33N 50°22' E 000°09'2222.2
2016-May-28 22:33N 50°16' W 000°24'2221.8
2016-May-28 21:33N 50°10' W 000°57'2121.0
2016-May-28 20:33N 50°05' W 001°29'4519.7
2016-May-28 18:16N 49°53' W 002°37'1217.5
2016-May-28 17:33N 49°50' W 002°55'1716.6
2016-May-28 16:33N 49°50' W 003°21'1717.0
2016-May-28 15:33N 49°50' W 003°47'1717.2
2016-May-28 14:33N 49°50' W 004°14'1717.3
2016-May-28 13:34N 49°50' W 004°41'1817.4
2016-May-28 12:33N 49°50' W 005°08'1917.7
2016-May-28 11:29N 49°51' W 005°37'1617.2
2016-May-28 10:33N 49°55' W 006°01'2218.2
2016-May-28 09:22N 50°17' W 006°02'1518.0
2016-May-28 08:32N 50°32' W 006°02'1818.1
2016-May-28 07:33N 50°50' W 006°02'17616.8
2016-May-27 21:04N 53°34' W 004°18'918.4
2016-May-27 20:33N 53°34' W 004°03'1918.8
2016-May-27 19:33N 53°33' W 003°31'1413.8
2016-May-27 18:33N 53°32' W 003°08'8 8.4
2016-May-27 17:33N 53°25' W 003°00'0 0.0
2016-May-27 16:32N 53°25' W 003°00'0 0.0
2016-May-27 15:32N 53°25' W 003°00'0 0.0
2016-May-27 14:32N 53°25' W 003°00'0 0.0
2016-May-27 13:32N 53°25' W 003°00'0 0.0
2016-May-27 12:32N 53°25' W 003°00'0 0.0
2016-May-27 11:32N 53°25' W 003°00'0 0.0
2016-May-27 10:32N 53°25' W 003°00'0 0.0
2016-May-27 09:32N 53°25' W 003°00'0 0.0
2016-May-27 08:32N 53°25' W 003°00'0 0.0
2016-May-27 07:32N 53°25' W 003°00'0 0.0
2016-May-27 06:32N 53°25' W 003°00'0 0.0
2016-May-27 05:32N 53°25' W 003°00'0 0.0
2016-May-27 04:32N 53°25' W 003°00'0 0.0
2016-May-27 03:32N 53°25' W 003°00'0 0.0
2016-May-27 02:32N 53°25' W 003°00'0 0.0
2016-May-27 01:33N 53°25' W 003°00'3 3.5
2016-May-27 00:33N 53°28' W 003°03'1111.2
2016-May-26 23:33N 53°32' W 003°20'1313.5
2016-May-26 22:33N 53°31' W 003°43'1717.3
2016-May-26 21:34N 53°40' W 004°08'135 5.8
2016-May-25 22:22N 51°58' W 006°32'1721.1
2016-May-25 21:33N 51°52' W 006°58'2120.7
2016-May-25 20:33N 51°45' W 007°30'2120.9
2016-May-25 19:33N 51°38' W 008°01'2020.2
2016-May-25 18:33N 51°31' W 008°32'2121.1
2016-May-25 17:33N 51°24' W 009°04'2121.1
2016-May-25 16:34N 51°17' W 009°36'2222.0
2016-May-25 15:33N 51°17' W 010°11'  
2016-May-23 00:00N 49°36' W 040°48'   330 / 451009.3 5.4 5.0

Dump ship's entire track history